Time;durP1;ratioP1;P1;durP2;ratioP2;P2;SDS_P1;SDS_P2;PMS_P1;PMS_P2;Temp;Humidity;BMP_temperature;BMP_pressure;BME280_temperature;BME280_humidity;BME280_pressure;Samples;Min_cycle;Max_cycle;Signal;HPM_P1;HPM_P2
2022/05/21 00:00:23;;;;;;;11.45;7.20;;;;;;;8.24;55.99;99448.59;5014073;28;20392;-62
2022/05/21 00:02:50;;;;;;;12.43;5.95;;;;;;;8.17;55.85;99444.41;5013874;28;20479;-61
2022/05/21 00:05:17;;;;;;;11.60;6.03;;;;;;;7.75;54.45;99380.56;5032559;28;20029;-62
2022/05/21 00:07:43;;;;;;;11.05;6.22;;;;;;;8.02;55.22;99437.72;5005313;28;20431;-60
2022/05/21 00:10:12;;;;;;;12.15;5.63;;;;;;;8.02;54.53;99431.72;4994115;28;20037;-61
2022/05/21 00:12:38;;;;;;;13.90;5.85;;;;;;;7.97;57.79;99436.09;5004243;28;20050;-61
2022/05/21 00:15:04;;;;;;;7.97;5.70;;;;;;;7.95;57.48;99438.69;4998713;28;20440;-62
2022/05/21 00:17:29;;;;;;;11.43;6.10;;;;;;;7.84;57.59;99435.44;4994104;28;20031;-61
2022/05/21 00:19:55;;;;;;;12.50;6.35;;;;;;;7.80;57.54;99444.09;4993784;28;20089;-62
2022/05/21 00:22:21;;;;;;;9.48;5.70;;;;;;;7.74;57.89;99438.16;4993791;28;20042;-62
2022/05/21 00:24:46;;;;;;;13.65;6.53;;;;;;;7.77;57.86;99440.69;4993916;28;20038;-62
2022/05/21 00:27:12;;;;;;;10.43;5.25;;;;;;;7.73;58.14;99428.69;4993413;28;20096;-62
2022/05/21 00:29:38;;;;;;;8.90;6.05;;;;;;;7.68;58.05;99437.38;4993902;28;20038;-62
2022/05/21 00:32:04;;;;;;;9.77;5.88;;;;;;;7.62;58.04;99432.31;5027259;28;20037;-62
2022/05/21 00:34:30;;;;;;;10.68;6.35;;;;;;;7.64;58.50;99433.13;5008967;28;20067;-61
2022/05/21 00:36:56;;;;;;;12.90;6.20;;;;;;;7.65;58.35;99430.53;4993399;28;20153;-60
2022/05/21 00:39:21;;;;;;;10.88;6.88;;;;;;;7.59;56.97;99426.31;4999143;28;20527;-60
2022/05/21 00:41:48;;;;;;;13.35;7.70;;;;;;;7.63;55.06;99426.28;5031855;28;20087;-60
2022/05/21 00:44:14;;;;;;;17.88;7.22;;;;;;;7.65;57.10;99416.81;4996627;28;20388;-60
2022/05/21 00:46:42;;;;;;;12.50;6.60;;;;;;;7.31;58.89;99364.03;4993346;28;20022;-59
2022/05/21 00:49:36;;;;;;;14.68;7.05;;;;;;;7.28;59.55;99368.34;4997823;28;20030;-61
2022/05/21 00:52:05;;;;;;;11.93;6.28;;;;;;;7.47;58.84;99394.69;5012806;28;20521;-61
2022/05/21 00:54:55;;;;;;;13.07;6.72;;;;;;;7.64;58.64;99423.69;5009233;28;20507;-61
2022/05/21 00:57:34;;;;;;;14.60;6.25;;;;;;;7.66;58.66;99421.94;4993464;28;20034;-61
2022/05/21 01:00:17;;;;;;;16.08;7.13;;;;;;;7.33;59.52;99375.16;4993259;28;20030;-62
2022/05/21 01:02:53;;;;;;;13.43;6.70;;;;;;;7.59;59.46;99430.63;5001295;28;20073;-62
2022/05/21 01:05:23;;;;;;;14.05;7.22;;;;;;;7.28;58.45;99371.75;4994360;28;20031;-62
2022/05/21 01:07:53;;;;;;;15.02;7.78;;;;;;;7.17;57.98;99342.72;4993084;28;20121;-61
2022/05/21 01:10:21;;;;;;;11.13;8.27;;;;;;;7.09;56.69;99338.53;5003436;28;20499;-61
2022/05/21 01:12:51;;;;;;;13.55;8.00;;;;;;;7.58;56.56;99408.28;5018288;28;20033;-61
2022/05/21 01:15:22;;;;;;;13.23;7.63;;;;;;;7.48;55.79;99399.00;5012528;28;20085;-61
2022/05/21 01:17:48;;;;;;;11.68;6.75;;;;;;;7.58;57.24;99410.88;5011506;28;20076;-61
2022/05/21 01:20:20;;;;;;;13.27;7.28;;;;;;;7.61;57.50;99416.00;5012382;28;20033;-61
2022/05/21 01:22:51;;;;;;;12.80;6.82;;;;;;;7.46;59.09;99390.44;5012722;28;20419;-61
2022/05/21 01:25:23;;;;;;;21.70;8.63;;;;;;;7.48;58.19;99389.56;5012454;28;20061;-61
2022/05/21 01:27:51;;;;;;;13.50;8.20;;;;;;;7.58;58.51;99409.16;5015759;28;20022;-61
2022/05/21 01:30:21;;;;;;;18.35;8.02;;;;;;;7.51;57.99;99393.78;5044071;28;20102;-61
2022/05/21 01:32:48;;;;;;;11.75;7.97;;;;;;;7.47;58.05;99400.72;4992381;28;20018;-62
2022/05/21 01:35:15;;;;;;;14.32;7.38;;;;;;;7.52;57.56;99408.38;5005641;28;20073;-61
2022/05/21 01:37:41;;;;;;;15.98;7.85;;;;;;;7.51;57.02;99417.84;5005692;28;20669;-61
2022/05/21 01:40:09;;;;;;;14.43;7.88;;;;;;;7.58;57.34;99414.31;5002354;28;20117;-61
2022/05/21 01:42:36;;;;;;;13.68;6.70;;;;;;;7.59;57.04;99410.84;4992924;28;20033;-62
2022/05/21 01:45:03;;;;;;;15.00;7.85;;;;;;;7.65;58.69;99409.91;4992545;28;20030;-62
2022/05/21 01:47:31;;;;;;;11.63;7.30;;;;;;;7.66;58.61;99415.94;5002201;28;20029;-62
2022/05/21 01:49:57;;;;;;;12.38;8.02;;;;;;;7.65;60.26;99409.91;5011988;28;20030;-62
2022/05/21 01:52:24;;;;;;;12.65;7.25;;;;;;;7.67;59.94;99405.59;5012015;28;20033;-60
2022/05/21 01:54:50;;;;;;;13.68;8.15;;;;;;;7.73;59.62;99407.25;5012380;28;20037;-61
2022/05/21 01:57:15;;;;;;;10.32;7.28;;;;;;;7.73;57.94;99408.09;5013226;28;20030;-61
2022/05/21 01:59:41;;;;;;;14.57;6.32;;;;;;;7.48;54.31;99402.44;5031873;28;20368;-61
2022/05/21 02:02:07;;;;;;;13.57;6.63;;;;;;;7.48;54.66;99406.72;5014691;28;20029;-61
2022/05/21 02:04:33;;;;;;;13.15;6.85;;;;;;;7.74;55.85;99407.22;5011902;28;20056;-62
2022/05/21 02:06:59;;;;;;;10.07;6.22;;;;;;;7.56;53.65;99408.31;5004824;28;20104;-61
2022/05/21 02:09:25;;;;;;;11.43;6.68;;;;;;;7.77;53.30;99409.75;4994791;28;20488;-62
2022/05/21 02:11:51;;;;;;;11.98;5.85;;;;;;;7.72;52.13;99408.09;5011725;28;20034;-61
2022/05/21 02:14:16;;;;;;;13.50;6.40;;;;;;;7.67;53.29;99407.34;5005613;28;20786;-61
2022/05/21 02:16:42;;;;;;;12.07;6.20;;;;;;;7.65;53.54;99384.13;5010491;28;20071;-61
2022/05/21 02:19:08;;;;;;;9.43;6.13;;;;;;;7.95;52.64;99403.47;5020364;28;20030;-61
2022/05/21 02:21:37;;;;;;;12.05;6.47;;;;;;;7.94;52.58;99416.41;5023872;28;20563;-61
2022/05/21 02:24:03;;;;;;;9.18;5.75;;;;;;;7.92;52.63;99406.09;4992392;28;20188;-60
2022/05/21 02:26:34;;;;;;;9.35;6.00;;;;;;;7.82;52.22;99389.03;5030744;28;20026;-60
2022/05/21 02:28:59;;;;;;;8.15;5.60;;;;;;;7.92;52.18;99388.06;5012942;28;20065;-60
2022/05/21 02:31:26;;;;;;;7.97;5.25;;;;;;;8.00;52.53;99394.81;5011777;28;20018;-61
2022/05/21 02:33:51;;;;;;;9.25;5.45;;;;;;;7.97;51.76;99395.72;5017707;28;20021;-61
2022/05/21 02:36:17;;;;;;;8.82;5.50;;;;;;;8.23;52.56;99397.03;5028854;28;20475;-60
2022/05/21 02:41:27;;;;;;;7.85;5.40;;;;;;;7.97;52.10;99389.69;5030419;28;20025;-62
2022/05/21 02:43:53;;;;;;;9.68;5.45;;;;;;;7.93;52.42;99386.31;5015620;28;20030;-62
2022/05/21 02:46:19;;;;;;;12.52;5.88;;;;;;;7.98;52.08;99389.69;5002877;28;20031;-61
2022/05/21 02:48:44;;;;;;;8.38;5.57;;;;;;;8.07;52.03;99388.69;5000269;28;20105;-61
2022/05/21 02:51:11;;;;;;;9.50;5.50;;;;;;;8.32;52.15;99386.53;5030133;28;20464;-61
2022/05/21 02:53:37;;;;;;;8.38;5.53;;;;;;;8.20;52.46;99389.34;5014854;28;20860;-61
2022/05/21 02:56:14;;;;;;;8.55;5.80;;;;;;;8.56;51.93;99389.59;5030487;28;20026;-60
2022/05/21 02:58:39;;;;;;;9.93;5.75;;;;;;;8.68;54.83;99380.78;5009885;28;20068;-60
2022/05/21 03:01:05;;;;;;;7.47;5.90;;;;;;;8.81;54.12;99380.53;5010546;28;20057;-60
2022/05/21 03:03:31;;;;;;;9.32;5.32;;;;;;;9.00;53.51;99380.16;5014531;28;20061;-61
2022/05/21 03:05:57;;;;;;;13.25;5.95;;;;;;;9.14;51.42;99383.31;4995122;28;20026;-60
2022/05/21 03:11:07;;;;;;;11.02;6.10;;;;;;;9.55;49.37;99383.31;5004553;28;20468;-62
2022/05/21 03:13:34;;;;;;;11.05;6.38;;;;;;;9.63;49.70;99384.00;5008957;28;20022;-61
2022/05/21 03:15:59;;;;;;;13.38;6.43;;;;;;;9.70;48.58;99369.19;5014996;28;20117;-60
2022/05/21 03:18:25;;;;;;;10.80;5.90;;;;;;;9.93;49.54;99373.84;5014873;28;20491;-60
2022/05/21 03:20:51;;;;;;;9.57;6.25;;;;;;;10.05;48.16;99371.81;5013113;28;20502;-61
2022/05/21 03:23:17;;;;;;;9.55;6.40;;;;;;;9.98;47.72;99355.63;5014973;28;20029;-61
2022/05/21 03:25:43;;;;;;;12.20;7.03;;;;;;;10.23;48.39;99367.94;5000651;28;20064;-62
2022/05/21 03:28:13;;;;;;;12.23;7.88;;;;;;;10.18;46.96;99358.53;5006122;28;20037;-61
2022/05/21 03:30:39;;;;;;;13.45;6.70;;;;;;;10.37;47.54;99368.47;5014607;28;20038;-60
2022/05/21 03:33:05;;;;;;;12.80;6.50;;;;;;;10.40;46.34;99363.19;5014303;28;20494;-61
2022/05/21 03:35:32;;;;;;;14.63;6.50;;;;;;;10.53;45.54;99363.72;5014242;28;20046;-61
2022/05/21 03:38:00;;;;;;;10.57;6.22;;;;;;;10.70;45.38;99364.16;5014139;28;20100;-62
2022/05/21 03:40:30;;;;;;;10.20;6.72;;;;;;;10.09;46.50;99361.38;5014121;28;20083;-62
2022/05/21 03:42:55;;;;;;;11.75;7.07;;;;;;;10.48;46.58;99361.25;5008203;28;20392;-63
2022/05/21 03:45:22;;;;;;;12.90;6.55;;;;;;;10.42;46.94;99366.63;5009881;28;20030;-63
2022/05/21 03:47:47;;;;;;;12.05;6.93;;;;;;;10.56;46.02;99358.50;4994332;28;20105;-62
2022/05/21 03:50:16;;;;;;;14.10;7.38;;;;;;;10.14;45.81;99312.94;5006683;28;20550;-62
2022/05/21 03:52:43;;;;;;;15.55;8.13;;;;;;;10.46;45.66;99363.06;5014022;28;20034;-62
2022/05/21 03:55:09;;;;;;;13.65;7.05;;;;;;;10.45;46.19;99361.34;5019425;28;20033;-62
2022/05/21 03:57:35;;;;;;;15.45;6.85;;;;;;;10.65;44.76;99367.75;5032630;28;20021;-61
2022/05/21 04:00:01;;;;;;;15.15;8.32;;;;;;;10.73;45.17;99363.22;5033398;28;20494;-61
2022/05/21 04:02:28;;;;;;;14.60;7.57;;;;;;;11.08;45.76;99363.94;5000034;28;20018;-61
2022/05/21 04:04:54;;;;;;;19.58;8.65;;;;;;;11.01;44.77;99357.25;5000148;28;20030;-60
2022/05/21 04:07:19;;;;;;;20.23;9.45;;;;;;;11.38;44.85;99358.75;4994118;28;20019;-60
2022/05/21 04:09:45;;;;;;;21.48;8.57;;;;;;;11.40;44.48;99364.75;4994374;28;20088;-61
2022/05/21 04:12:10;;;;;;;19.45;9.20;;;;;;;11.09;44.04;99355.28;5004369;28;20419;-61
2022/05/21 04:14:36;;;;;;;20.38;8.55;;;;;;;11.43;44.35;99353.44;5008237;28;20029;-61
2022/05/21 04:17:04;;;;;;;19.83;7.78;;;;;;;11.06;43.58;99300.97;5013713;28;20049;-60
2022/05/21 04:19:31;;;;;;;14.23;6.55;;;;;;;11.64;43.73;99362.31;5023984;28;20044;-59
2022/05/21 04:21:57;;;;;;;14.30;6.80;;;;;;;11.71;44.18;99350.84;5033055;28;20076;-60
2022/05/21 04:24:23;;;;;;;19.60;6.68;;;;;;;11.70;43.04;99351.72;5030744;28;20033;-61
2022/05/21 04:26:49;;;;;;;14.88;6.15;;;;;;;11.74;42.89;99345.53;4993804;28;20030;-61
2022/05/21 04:29:16;;;;;;;13.27;6.18;;;;;;;11.85;43.15;99351.25;4993757;28;20507;-61
2022/05/21 04:31:42;;;;;;;11.75;6.03;;;;;;;11.92;41.58;99347.56;4993706;28;20053;-60
2022/05/21 04:34:08;;;;;;;14.68;6.20;;;;;;;12.30;42.67;99338.56;4992525;28;20468;-61
2022/05/21 04:36:35;;;;;;;11.45;5.95;;;;;;;12.32;42.31;99342.81;5008500;28;20144;-60
2022/05/21 04:39:01;;;;;;;15.05;6.18;;;;;;;12.32;42.50;99341.97;5033105;28;20108;-61
2022/05/21 04:41:27;;;;;;;15.80;6.47;;;;;;;11.85;41.61;99347.81;4996805;28;20503;-61
2022/05/21 04:43:53;;;;;;;14.70;5.90;;;;;;;12.30;42.36;99330.78;4993393;28;20035;-63
2022/05/21 04:46:20;;;;;;;12.73;6.05;;;;;;;12.42;42.23;99331.19;4993427;28;20073;-62
2022/05/21 04:48:47;;;;;;;12.70;5.65;;;;;;;12.84;41.32;99331.47;4993329;28;20065;-61
2022/05/21 04:51:13;;;;;;;14.98;6.72;;;;;;;13.17;39.91;99328.53;5012990;28;20084;-61
2022/05/21 04:53:39;;;;;;;12.93;6.05;;;;;;;13.64;39.88;99328.50;5008451;28;20022;-62
2022/05/21 04:56:05;;;;;;;15.05;6.18;;;;;;;13.91;41.48;99328.25;5023141;28;20459;-62
2022/05/21 04:58:31;;;;;;;11.30;5.95;;;;;;;14.06;40.31;99329.41;5047792;28;20174;-62
2022/05/21 05:00:57;;;;;;;12.70;5.80;;;;;;;14.11;39.48;99317.88;5021254;28;20026;-62
2022/05/21 05:03:22;;;;;;;10.82;5.53;;;;;;;14.41;39.03;99327.91;5004251;28;20472;-61
2022/05/21 05:05:49;;;;;;;11.40;5.03;;;;;;;14.53;37.82;99318.69;4993211;28;20105;-62
2022/05/21 05:08:16;;;;;;;16.38;5.80;;;;;;;14.18;39.11;99284.63;4992300;28;20535;-62
2022/05/21 05:10:43;;;;;;;8.38;4.68;;;;;;;14.25;36.51;99306.03;5016522;28;20076;-62
2022/05/21 05:13:08;;;;;;;6.53;4.15;;;;;;;14.66;36.41;99314.69;5008003;28;20030;-63
2022/05/21 05:15:35;;;;;;;5.85;4.32;;;;;;;15.18;37.36;99315.84;5012652;28;20546;-62
2022/05/21 05:18:06;;;;;;;7.03;4.03;;;;;;;15.38;35.57;99261.84;5012385;28;20059;-62
2022/05/21 05:20:32;;;;;;;5.63;3.88;;;;;;;15.72;36.91;99315.91;5012092;28;20029;-63
2022/05/21 05:22:57;;;;;;;7.88;4.45;;;;;;;15.80;35.79;99307.72;5025802;28;20029;-62
2022/05/21 05:25:23;;;;;;;9.20;4.97;;;;;;;15.99;34.51;99291.97;5014041;28;20025;-63
2022/05/21 05:27:50;;;;;;;9.05;4.88;;;;;;;15.99;34.26;99292.84;4992556;28;20030;-62
2022/05/21 05:30:18;;;;;;;9.00;5.32;;;;;;;15.00;33.89;99268.81;4993165;28;20033;-62
2022/05/21 05:32:43;;;;;;;7.25;5.03;;;;;;;14.91;35.47;99297.94;5004205;28;20077;-63
2022/05/21 05:35:09;;;;;;;8.98;5.07;;;;;;;14.90;35.10;99298.00;5007700;28;20050;-62
2022/05/21 05:37:35;;;;;;;7.85;4.55;;;;;;;15.35;35.28;99284.59;4992619;28;20403;-61
2022/05/21 05:40:01;;;;;;;9.52;4.75;;;;;;;15.50;34.72;99282.16;4992586;28;20487;-61
2022/05/21 05:42:27;;;;;;;10.38;4.93;;;;;;;15.17;34.02;99286.28;4992577;28;20030;-61
2022/05/21 05:44:52;;;;;;;8.27;4.32;;;;;;;15.45;34.36;99281.50;4992650;28;20034;-61
2022/05/21 05:47:18;;;;;;;7.20;4.57;;;;;;;15.42;34.42;99274.69;5008805;28;20525;-61
2022/05/21 05:49:43;;;;;;;9.50;4.75;;;;;;;15.57;34.72;99267.88;5007967;28;20041;-60
2022/05/21 05:52:09;;;;;;;11.05;5.25;;;;;;;15.23;34.67;99276.50;5011662;28;20483;-62
2022/05/21 05:54:35;;;;;;;8.75;5.22;;;;;;;15.59;34.16;99266.06;5011741;28;20041;-63
2022/05/21 05:57:02;;;;;;;10.05;5.55;;;;;;;15.94;33.39;99266.09;5011246;28;20109;-61
2022/05/21 06:04:56;;;;;;;8.80;4.55;;;;;;;15.35;33.92;99257.66;5010249;28;20511;-62
2022/05/21 06:07:22;;;;;;;8.93;4.80;;;;;;;15.46;33.73;99252.75;5002194;28;20030;-61
2022/05/21 06:09:48;;;;;;;8.93;4.30;;;;;;;15.37;33.28;99242.75;4995801;28;20034;-63
2022/05/21 06:12:15;;;;;;;8.27;4.75;;;;;;;15.32;33.75;99243.00;5011689;28;20117;-63
2022/05/21 06:14:41;;;;;;;8.00;4.68;;;;;;;15.46;35.20;99246.69;5011013;28;20022;-62
2022/05/21 06:17:07;;;;;;;6.90;5.05;;;;;;;15.45;34.27;99243.22;5012173;28;20062;-61
2022/05/21 06:19:34;;;;;;;5.90;4.13;;;;;;;15.63;33.60;99228.41;5003868;28;20026;-61
2022/05/21 06:22:01;;;;;;;18.27;4.38;;;;;;;15.60;33.66;99236.41;5009889;28;20069;-60
2022/05/21 06:24:27;;;;;;;6.60;3.92;;;;;;;15.22;32.24;99236.53;4996256;28;20113;-62
2022/05/21 06:26:52;;;;;;;6.72;3.75;;;;;;;15.60;33.46;99225.13;4996113;28;20554;-60
2022/05/21 06:29:18;;;;;;;3.80;2.25;;;;;;;15.38;32.75;99227.94;5009775;28;20061;-60
2022/05/21 06:31:43;;;;;;;4.95;2.85;;;;;;;15.60;33.01;99223.34;5004411;28;20053;-61
2022/05/21 06:34:09;;;;;;;5.65;2.60;;;;;;;15.87;32.14;99218.53;4995767;28;20030;-60
2022/05/21 06:36:35;;;;;;;10.30;3.03;;;;;;;15.91;32.83;99214.00;4995598;28;20081;-59
2022/05/21 06:39:01;;;;;;;4.80;2.70;;;;;;;16.05;32.22;99214.16;4995504;28;20034;-56
2022/05/21 06:41:30;;;;;;;11.57;2.70;;;;;;;16.19;32.66;99204.75;5029298;28;20049;-58
2022/05/21 06:43:55;;;;;;;5.35;3.55;;;;;;;16.00;32.27;99218.78;5008631;28;20030;-57
2022/05/21 06:46:21;;;;;;;5.35;2.15;;;;;;;15.87;31.35;99209.88;4994462;28;20026;-59
2022/05/21 06:48:47;;;;;;;3.42;2.55;;;;;;;15.57;32.62;99207.00;4995323;28;20030;-58
2022/05/21 06:51:13;;;;;;;6.65;3.00;;;;;;;15.35;31.24;99198.47;5015091;28;20037;-59
2022/05/21 06:53:40;;;;;;;9.52;2.97;;;;;;;15.83;32.39;99190.06;5014805;28;20022;-58
2022/05/21 06:56:16;;;;;;;5.90;2.92;;;;;;;15.88;32.63;99188.06;5015131;28;20452;-58
2022/05/21 06:58:42;;;;;;;5.03;3.03;;;;;;;15.79;32.46;99201.56;5025340;28;20112;-59
2022/05/21 07:01:09;;;;;;;6.68;3.00;;;;;;;15.43;32.61;99187.66;5034589;28;20360;-58
2022/05/21 07:03:35;;;;;;;9.60;3.33;;;;;;;15.44;33.47;99184.13;5022641;28;20041;-59
2022/05/21 07:08:45;;;;;;;3.45;2.80;;;;;;;15.12;31.22;99188.31;5034303;28;20030;-57
2022/05/21 07:11:11;;;;;;;5.53;2.70;;;;;;;15.18;31.09;99188.84;5003086;28;20034;-58
2022/05/21 07:13:36;;;;;;;5.18;2.90;;;;;;;15.72;32.78;99182.75;5018629;28;20050;-58
2022/05/21 07:16:02;;;;;;;4.35;2.83;;;;;;;15.96;33.19;99174.59;5014701;28;20033;-58
2022/05/21 07:18:28;;;;;;;4.32;2.50;;;;;;;15.81;31.99;99174.47;5014498;28;20033;-58
2022/05/21 07:20:55;;;;;;;5.63;2.85;;;;;;;15.51;31.90;99166.41;5014409;28;20102;-58
2022/05/21 07:23:21;;;;;;;3.35;2.70;;;;;;;16.09;32.26;99160.00;5014330;28;20556;-58
2022/05/21 07:25:47;;;;;;;7.43;2.55;;;;;;;16.18;31.45;99163.88;5014287;28;20188;-60
2022/05/21 07:28:14;;;;;;;7.75;2.60;;;;;;;16.36;32.85;99154.19;5008761;28;20029;-59
2022/05/21 07:30:40;;;;;;;5.20;2.90;;;;;;;16.02;31.44;99153.41;5013479;28;20065;-59
2022/05/21 07:33:19;;;;;;;6.38;2.92;;;;;;;15.93;30.95;99105.06;5014538;28;20105;-60
2022/05/21 07:35:45;;;;;;;5.65;2.55;;;;;;;16.13;32.08;99152.81;5014199;28;20128;-59
2022/05/21 07:38:13;;;;;;;8.55;2.90;;;;;;;16.17;33.43;99154.34;5014076;28;20396;-60
2022/05/21 07:40:40;;;;;;;6.97;2.55;;;;;;;16.15;31.60;99145.75;5004016;28;20030;-59
2022/05/21 07:43:27;;;;;;;4.50;2.90;;;;;;;15.01;30.98;99093.19;5000009;28;20117;-59
2022/05/21 07:45:56;;;;;;;7.47;3.22;;;;;;;15.31;31.77;99141.31;5018095;28;20029;-61
2022/05/21 07:48:22;;;;;;;6.65;3.00;;;;;;;15.66;32.28;99133.44;5033711;28;20056;-60
2022/05/21 07:51:02;;;;;;;7.80;2.58;;;;;;;14.91;31.45;99149.31;5013846;28;20037;-59
2022/05/21 07:53:34;;;;;;;3.80;2.53;;;;;;;14.75;31.65;99117.06;5008200;28;20085;-59
2022/05/21 07:55:59;;;;;;;6.57;2.88;;;;;;;15.43;31.75;99129.41;5009690;28;20033;-59
2022/05/21 07:58:27;;;;;;;6.68;3.00;;;;;;;15.69;32.43;99135.88;5008377;28;20042;-59
2022/05/21 08:00:54;;;;;;;4.20;2.50;;;;;;;15.80;31.00;99131.00;4991247;28;20053;-59
2022/05/21 08:03:20;;;;;;;8.32;2.60;;;;;;;15.79;31.15;99124.09;4973331;28;20026;-57
2022/05/21 08:05:46;;;;;;;3.90;2.40;;;;;;;15.32;30.62;99124.72;4965214;28;20511;-58
2022/05/21 08:08:12;;;;;;;4.18;2.70;;;;;;;15.87;32.84;99123.69;5022502;28;20041;-58
2022/05/21 08:10:41;;;;;;;5.20;2.55;;;;;;;15.81;32.61;99058.75;5031965;28;20037;-58
2022/05/21 08:13:06;;;;;;;9.48;6.30;;;;;;;16.13;32.35;99109.25;5017357;28;20365;-60
2022/05/21 08:15:33;;;;;;;8.63;2.42;;;;;;;16.42;31.45;99112.06;5013786;28;20061;-59
2022/05/21 08:18:00;;;;;;;4.43;2.50;;;;;;;16.29;30.92;99109.28;5029206;28;20033;-59
2022/05/21 08:20:27;;;;;;;7.75;2.55;;;;;;;16.32;30.13;99103.88;5011816;28;20049;-60
2022/05/21 08:28:32;;;;;;;3.95;2.38;;;;;;;16.43;30.99;99095.44;5017224;28;20054;-59
2022/05/21 08:30:58;;;;;;;5.47;2.60;;;;;;;15.81;29.17;99097.91;5000934;28;20033;-59
2022/05/21 08:33:24;;;;;;;4.03;2.70;;;;;;;15.68;30.83;99082.00;5032847;28;20034;-59
2022/05/21 08:35:50;;;;;;;4.32;2.90;;;;;;;15.73;30.33;99090.44;4994227;28;20058;-58
2022/05/21 08:38:16;;;;;;;4.10;2.63;;;;;;;15.79;30.62;99084.94;5016711;28;20109;-59
2022/05/21 08:40:54;;;;;;;7.53;2.95;;;;;;;16.35;31.75;99072.34;5007544;28;20133;-59
2022/05/21 08:43:55;;;;;;;2.40;2.15;;;;;;;16.67;31.75;99069.69;5008208;28;20017;-59
2022/05/21 08:46:56;;;;;;;7.57;3.08;;;;;;;16.38;30.62;99077.41;5016337;28;20048;-59
2022/05/21 08:49:30;;;;;;;5.75;3.17;;;;;;;16.76;30.51;99097.13;5010335;28;20100;-59
2022/05/21 08:51:58;;;;;;;5.72;2.80;;;;;;;16.68;29.27;99074.00;5013078;28;20022;-59
2022/05/21 08:54:29;;;;;;;3.78;2.58;;;;;;;16.52;30.05;99026.13;5012994;28;20073;-59
2022/05/21 08:56:56;;;;;;;7.13;3.00;;;;;;;16.01;30.01;99040.22;4993171;28;20104;-58
2022/05/21 08:59:30;;;;;;;3.63;2.78;;;;;;;16.43;30.43;99013.56;5024244;28;20022;-59
2022/05/21 09:01:56;;;;;;;2.60;2.40;;;;;;;16.56;29.63;99062.47;5009157;28;20034;-59
2022/05/21 09:04:23;;;;;;;3.95;2.60;;;;;;;16.75;29.92;99048.34;5019173;28;20021;-60
2022/05/21 09:07:00;;;;;;;6.78;3.08;;;;;;;16.18;28.95;98999.28;5027108;28;20847;-60
2022/05/21 09:09:34;;;;;;;6.03;3.08;;;;;;;16.66;29.70;99052.34;5011724;28;20080;-60
2022/05/21 09:12:06;;;;;;;3.05;2.40;;;;;;;16.98;30.26;99044.44;4997211;28;20499;-58
2022/05/21 09:14:43;;;;;;;5.97;3.25;;;;;;;16.91;29.42;99045.72;5009453;28;20029;-58
2022/05/21 09:17:25;;;;;;;4.15;2.70;;;;;;;16.49;28.42;99032.38;4998072;28;20038;-58
2022/05/21 09:19:57;;;;;;;4.07;2.63;;;;;;;16.56;29.13;99040.72;5008665;28;20534;-59
2022/05/21 09:22:23;;;;;;;8.45;2.90;;;;;;;16.63;29.52;99039.44;5008092;28;20052;-58
2022/05/21 09:24:50;;;;;;;4.00;3.10;;;;;;;16.12;28.73;99042.25;4994648;28;20461;-58
2022/05/21 09:27:27;;;;;;;4.88;2.97;;;;;;;16.74;31.37;99054.50;5007711;28;20102;-58
2022/05/21 09:30:11;;;;;;;5.18;3.53;;;;;;;17.00;30.11;99023.41;5030802;28;20048;-60
2022/05/21 09:32:38;;;;;;;7.30;3.20;;;;;;;17.11;29.70;99030.63;5031380;28;20039;-58
2022/05/21 09:35:16;;;;;;;5.07;2.80;;;;;;;17.16;28.62;99025.94;5031260;28;20029;-60
2022/05/21 09:37:44;;;;;;;8.10;2.88;;;;;;;17.13;29.18;99020.91;5021689;28;20033;-58
2022/05/21 09:40:37;;;;;;;4.70;2.50;;;;;;;16.83;27.58;99022.59;5016786;28;20033;-57
2022/05/21 09:46:34;;;;;;;7.78;3.05;;;;;;;17.08;28.67;99008.94;4995359;28;20369;-59
2022/05/21 09:49:18;;;;;;;7.78;3.22;;;;;;;16.91;30.43;99001.25;5010185;28;20045;-59
2022/05/21 09:52:00;;;;;;;4.03;2.70;;;;;;;15.80;28.87;99002.22;4992546;28;20050;-61
2022/05/21 09:54:33;;;;;;;5.63;4.00;;;;;;;15.77;28.66;98977.09;5006314;28;20361;-60
2022/05/21 09:56:59;;;;;;;6.05;2.70;;;;;;;15.52;29.19;98993.25;4992089;28;20105;-62
2022/05/21 09:59:28;;;;;;;6.45;3.00;;;;;;;15.77;29.34;99013.63;5007374;28;20125;-60
2022/05/21 10:02:01;;;;;;;7.97;3.10;;;;;;;15.98;29.40;99008.22;5022626;28;20026;-59
2022/05/21 10:04:45;;;;;;;7.38;2.95;;;;;;;15.74;28.73;98989.47;5004702;28;20026;-60
2022/05/21 10:13:17;;;;;;;4.10;3.70;;;;;;;16.69;30.29;98976.31;5007280;28;20062;-58
2022/05/21 10:15:48;;;;;;;4.78;2.88;;;;;;;16.33;28.36;98959.22;5009517;28;20030;-59
2022/05/21 10:18:36;;;;;;;4.90;3.30;;;;;;;15.94;28.17;98962.31;5005689;28;20029;-59
2022/05/21 10:21:12;;;;;;;5.60;2.95;;;;;;;15.91;28.16;98947.63;5005100;28;20053;-61
2022/05/21 10:23:46;;;;;;;4.32;2.70;;;;;;;15.98;28.66;98917.63;5011516;28;20036;-61
2022/05/21 10:26:36;;;;;;;5.05;2.60;;;;;;;16.34;27.71;98955.66;5006868;28;20084;-62
2022/05/21 10:29:23;;;;;;;4.38;3.00;;;;;;;16.50;28.71;98950.41;5008067;28;20109;-60
2022/05/21 10:32:05;;;;;;;5.68;2.97;;;;;;;16.35;28.61;98953.91;5008948;28;20526;-61
2022/05/21 10:35:16;;;;;;;6.65;3.10;;;;;;;15.86;28.09;98928.75;5012960;28;20472;-60
2022/05/21 10:38:20;;;;;;;3.08;2.78;;;;;;;16.24;29.77;98938.84;4990337;28;20045;-61
2022/05/21 10:41:01;;;;;;;4.35;2.72;;;;;;;16.43;28.12;98937.78;5008451;28;20042;-60
2022/05/21 10:43:59;;;;;;;6.13;3.30;;;;;;;16.62;30.03;98935.78;5007914;28;20065;-62
2022/05/21 10:46:51;;;;;;;4.60;3.20;;;;;;;16.75;28.38;98933.28;5008753;28;20041;-59
2022/05/21 10:49:59;;;;;;;6.97;3.58;;;;;;;16.83;28.66;98924.97;5008426;28;20025;-60
2022/05/21 10:52:50;;;;;;;4.32;3.08;;;;;;;16.23;27.18;98934.53;5010557;28;20549;-63
2022/05/21 10:55:38;;;;;;;4.10;3.13;;;;;;;15.79;27.43;98924.81;5004452;28;20041;-65
2022/05/21 10:58:22;;;;;;;3.40;3.10;;;;;;;15.89;28.37;98933.84;5011711;28;20072;-60
2022/05/21 11:01:06;;;;;;;3.80;2.80;;;;;;;16.16;28.56;98933.19;5037788;28;20049;-61
2022/05/21 11:03:58;;;;;;;3.67;2.90;;;;;;;15.75;27.38;98879.72;5018983;28;20044;-60
2022/05/21 11:06:39;;;;;;;4.80;3.00;;;;;;;16.13;28.23;98922.91;5001376;28;20037;-60
2022/05/21 11:09:07;;;;;;;4.80;2.97;;;;;;;16.15;28.38;98928.91;5006981;28;20042;-61
2022/05/21 11:11:48;;;;;;;6.35;3.22;;;;;;;15.83;28.01;98915.88;5012687;28;20076;-60
2022/05/21 11:14:48;;;;;;;4.72;2.88;;;;;;;16.00;27.20;98925.38;5007810;28;20034;-61
2022/05/21 11:17:28;;;;;;;4.65;2.75;;;;;;;16.00;27.95;98870.53;5013278;28;20062;-59
2022/05/21 11:20:15;;;;;;;5.97;3.20;;;;;;;16.37;27.04;98915.44;5032104;28;20071;-59
2022/05/21 11:23:17;;;;;;;4.93;2.95;;;;;;;16.54;27.56;98912.69;5023640;28;20055;-61
2022/05/21 11:25:55;;;;;;;7.22;3.40;;;;;;;16.51;27.30;98891.97;5034228;28;20025;-59
2022/05/21 11:28:28;;;;;;;5.35;3.08;;;;;;;16.43;26.63;98898.56;5023617;28;20084;-59
2022/05/21 11:31:13;;;;;;;7.40;3.13;;;;;;;16.29;26.71;98857.56;4998594;28;20030;-59
2022/05/21 11:39:14;;;;;;;7.15;5.45;;;;;;;16.56;27.78;98876.03;5009451;28;20484;-59
2022/05/21 11:42:03;;;;;;;8.95;6.72;;;;;;;16.74;29.56;98868.84;5010025;28;20029;-60
2022/05/21 11:45:01;;;;;;;4.28;3.05;;;;;;;16.81;29.79;98870.16;5017545;28;20113;-59
2022/05/21 11:47:40;;;;;;;4.57;3.55;;;;;;;16.73;27.42;98873.25;5010437;28;20022;-59
2022/05/21 11:50:11;;;;;;;7.80;3.47;;;;;;;16.56;27.29;98869.00;5015577;28;20068;-61
2022/05/21 11:52:37;;;;;;;3.72;3.25;;;;;;;16.76;28.62;98866.13;5011889;28;20145;-60
2022/05/21 11:55:11;;;;;;;5.85;3.50;;;;;;;16.78;29.91;98862.50;5013716;28;20124;-60
2022/05/21 11:57:52;;;;;;;5.72;3.80;;;;;;;16.68;27.72;98856.97;5013927;28;20022;-58
2022/05/21 12:00:18;;;;;;;7.47;3.60;;;;;;;16.82;27.83;98853.53;5001258;28;20084;-61
2022/05/21 12:03:05;;;;;;;4.53;3.15;;;;;;;16.93;26.97;98854.69;5011017;28;20057;-60
2022/05/21 12:05:51;;;;;;;5.43;3.20;;;;;;;16.78;27.37;98843.38;5019926;28;20457;-57
2022/05/21 12:08:22;;;;;;;8.48;6.00;;;;;;;16.88;27.82;98844.50;5027084;28;20482;-59
2022/05/21 12:11:09;;;;;;;5.43;3.33;;;;;;;16.76;26.82;98850.44;5026789;28;20065;-61
2022/05/21 12:13:40;;;;;;;4.93;3.17;;;;;;;16.63;27.63;98851.19;5014728;28;20038;-59
2022/05/21 12:16:20;;;;;;;5.50;3.05;;;;;;;16.94;28.92;98843.28;5009131;28;20379;-59
2022/05/21 12:18:50;;;;;;;5.72;3.45;;;;;;;16.43;27.26;98794.03;5011445;28;20034;-60
2022/05/21 12:21:32;;;;;;;5.22;3.35;;;;;;;16.42;26.87;98827.19;4993616;28;20057;-60